Terminal Aerodrome Forecast
Issued by NWS Knoxville/Tri Cities, TN

Home | Current Version | Previous Version | Text Only | Print | Product List | Glossary On
Versions: 1 2 3 4 5 6 7 8 9 10 11 12 13 14 15 16 17 18 19 20 21 22 23 24 25 26 27 28 29 30 31 32 33 34
000
FTUS44 KMRX 050240 AAA
TAFTYS
TAF AMD
KTYS 050240Z 0503/0524 27017G28KT 6SM -RA BR SCT025 OVC040
      TEMPO 0503/0505 4SM -SHRA BR BKN025
     FM050600 35010KT 3SM -RA BR OVC020
     FM051000 01011KT 6SM -RA BR BKN007
     FM051600 36012KT 3SM -PLSN OVC006
     FM052000 02008KT P6SM OVC020=

USA.gov is the U.S. government's official web portal to all federal, state and local government web resources and services.